createdAt,value
2023-04-16T00:01:16.696Z,85.50
2023-04-16T00:03:43.420Z,85.37
2023-04-16T00:06:11.618Z,85.12
2023-04-16T00:08:38.349Z,85.34
2023-04-16T00:11:05.966Z,85.35
2023-04-16T00:13:32.396Z,85.30
2023-04-16T00:15:59.184Z,85.53
2023-04-16T00:18:26.273Z,85.92
2023-04-16T00:20:53.510Z,86.15
2023-04-16T00:23:20.133Z,85.78
2023-04-16T00:25:46.688Z,85.99
2023-04-16T00:28:13.171Z,86.25
2023-04-16T00:30:39.985Z,85.84
2023-04-16T00:33:06.690Z,85.45
2023-04-16T00:35:33.129Z,86.09
2023-04-16T00:37:59.570Z,85.86
2023-04-16T00:40:29.934Z,86.25
2023-04-16T00:42:56.431Z,85.93
2023-04-16T00:45:22.887Z,85.90
2023-04-16T00:47:49.910Z,86.25
2023-04-16T00:50:17.581Z,85.89
2023-04-16T00:52:44.101Z,85.57
2023-04-16T00:55:13.321Z,85.46
2023-04-16T00:57:39.889Z,85.78
2023-04-16T01:00:06.952Z,85.91
2023-04-16T01:02:34.566Z,85.92
2023-04-16T01:05:01.963Z,85.22
2023-04-16T01:07:28.545Z,85.76
2023-04-16T01:09:55.184Z,85.31
2023-04-16T01:12:21.668Z,85.16
2023-04-16T01:14:48.388Z,85.33
2023-04-16T01:17:15.052Z,84.74
2023-04-16T01:19:42.524Z,84.61
2023-04-16T01:22:09.045Z,84.51
2023-04-16T01:24:36.446Z,84.94
2023-04-16T01:27:02.946Z,84.81
2023-04-16T01:29:29.446Z,84.50
2023-04-16T01:31:56.189Z,84.75
2023-04-16T01:34:22.996Z,84.37
2023-04-16T01:36:49.495Z,84.90
2023-04-16T01:39:16.481Z,84.58
2023-04-16T01:41:43.636Z,84.56
2023-04-16T01:44:10.249Z,84.54
2023-04-16T01:46:37.751Z,84.97
2023-04-16T01:49:04.916Z,84.72
2023-04-16T01:51:32.125Z,84.95
2023-04-16T01:53:58.956Z,84.75
2023-04-16T01:56:25.739Z,84.60
2023-04-16T01:58:52.883Z,84.75
2023-04-16T02:01:19.466Z,84.62
2023-04-16T02:03:46.298Z,85.09
2023-04-16T02:06:12.995Z,85.05
2023-04-16T02:08:39.537Z,85.10
2023-04-16T02:11:05.950Z,84.92
2023-04-16T02:13:32.403Z,84.68
2023-04-16T02:15:59.295Z,84.85
2023-04-16T02:18:25.846Z,84.37
2023-04-16T02:20:52.464Z,84.60
2023-04-16T02:23:18.898Z,84.96
2023-04-16T02:25:46.834Z,84.80
2023-04-16T02:28:15.430Z,84.66
2023-04-16T02:30:42.293Z,84.66
2023-04-16T02:33:10.443Z,84.38
2023-04-16T02:35:37.928Z,84.93
2023-04-16T02:38:05.297Z,84.63
2023-04-16T02:40:32.097Z,84.18
2023-04-16T02:42:58.602Z,84.35
2023-04-16T02:45:25.336Z,84.91
2023-04-16T02:47:51.975Z,84.70
2023-04-16T02:50:18.773Z,84.52
2023-04-16T02:52:45.366Z,84.69
2023-04-16T02:55:11.950Z,84.73
2023-04-16T02:57:38.436Z,84.50
2023-04-16T03:00:05.441Z,84.91
2023-04-16T03:02:31.986Z,84.66
2023-04-16T03:04:58.668Z,84.70
2023-04-16T03:07:25.184Z,84.92
2023-04-16T03:09:51.786Z,84.68
2023-04-16T03:12:18.251Z,84.88
2023-04-16T03:14:44.626Z,84.58
2023-04-16T03:17:11.495Z,84.31
2023-04-16T03:19:37.891Z,85.25
2023-04-16T03:22:04.640Z,85.57
2023-04-16T03:24:31.128Z,85.29
2023-04-16T03:26:58.379Z,85.35
2023-04-16T03:29:26.722Z,85.33
2023-04-16T03:31:53.198Z,85.32
2023-04-16T03:34:19.756Z,85.21
2023-04-16T03:36:46.329Z,85.19
2023-04-16T03:39:12.743Z,85.63
2023-04-16T03:41:39.157Z,85.65
2023-04-16T03:44:05.754Z,85.92
2023-04-16T03:46:32.327Z,86.03
2023-04-16T03:48:58.830Z,85.86
2023-04-16T03:51:26.397Z,85.88
2023-04-16T03:53:52.887Z,85.93
2023-04-16T03:56:19.383Z,86.02
2023-04-16T03:58:45.949Z,85.97
2023-04-16T04:01:12.397Z,86.58
2023-04-16T04:03:38.929Z,86.32
2023-04-16T04:06:09.029Z,86.25
2023-04-16T04:08:35.558Z,87.72
2023-04-16T04:11:01.923Z,86.55
2023-04-16T04:13:28.369Z,86.30
2023-04-16T04:15:54.913Z,86.67
2023-04-16T04:18:21.351Z,86.81
2023-04-16T04:20:47.792Z,86.53
2023-04-16T04:23:14.232Z,86.22
2023-04-16T04:25:40.781Z,86.07
2023-04-16T04:28:07.232Z,86.15
2023-04-16T04:30:35.674Z,86.15
2023-04-16T04:33:02.247Z,86.31
2023-04-16T04:35:28.745Z,86.23
2023-04-16T04:37:55.196Z,86.50
2023-04-16T04:40:21.625Z,86.65
2023-04-16T04:42:48.208Z,86.93
2023-04-16T04:45:14.703Z,86.80
2023-04-16T04:47:41.188Z,86.94
2023-04-16T04:50:08.141Z,86.73
2023-04-16T04:52:34.525Z,87.07
2023-04-16T04:55:01.241Z,86.69
2023-04-16T04:57:27.694Z,86.83
2023-04-16T04:59:54.131Z,86.78
2023-04-16T05:02:20.774Z,87.08
2023-04-16T05:04:47.311Z,86.76
2023-04-16T05:07:13.802Z,86.56
2023-04-16T05:09:42.624Z,86.79
2023-04-16T05:12:09.151Z,87.18
2023-04-16T05:14:36.365Z,86.51
2023-04-16T05:17:03.032Z,86.83
2023-04-16T05:19:32.623Z,86.62
2023-04-16T05:21:59.715Z,86.31
2023-04-16T05:24:29.288Z,86.52
2023-04-16T05:26:57.316Z,86.17
2023-04-16T05:29:24.049Z,86.67
2023-04-16T05:31:50.574Z,86.43
2023-04-16T05:34:17.092Z,86.23
2023-04-16T05:36:43.529Z,86.09
2023-04-16T05:39:10.815Z,86.48
2023-04-16T05:41:37.545Z,86.68
2023-04-16T05:44:04.181Z,86.56
2023-04-16T05:46:31.381Z,86.10
2023-04-16T05:48:57.886Z,86.22
2023-04-16T05:51:26.105Z,86.69
2023-04-16T05:53:52.516Z,86.57
2023-04-16T05:56:19.209Z,86.56
2023-04-16T05:58:45.701Z,86.45
2023-04-16T06:01:12.343Z,86.70
2023-04-16T06:03:38.952Z,86.74
2023-04-16T06:06:05.721Z,86.76
2023-04-16T06:08:32.238Z,86.78
2023-04-16T06:10:58.680Z,86.36
2023-04-16T06:13:25.169Z,86.81
2023-04-16T06:15:51.640Z,86.66
2023-04-16T06:18:18.071Z,86.36
2023-04-16T06:20:44.513Z,86.22
2023-04-16T06:23:11.153Z,86.08
2023-04-16T06:25:37.551Z,85.96
2023-04-16T06:28:04.058Z,86.43
2023-04-16T06:30:30.624Z,86.31
2023-04-16T06:32:57.083Z,86.31
2023-04-16T06:35:23.627Z,86.42
2023-04-16T06:37:50.121Z,86.78
2023-04-16T06:40:16.719Z,86.47
2023-04-16T06:42:44.883Z,86.67
2023-04-16T06:45:12.357Z,86.49
2023-04-16T06:47:38.799Z,86.55
2023-04-16T06:50:06.034Z,86.79
2023-04-16T06:52:32.527Z,86.52
2023-04-16T06:54:58.987Z,86.61
2023-04-16T06:57:25.490Z,86.48
2023-04-16T06:59:51.937Z,86.34
2023-04-16T07:02:18.498Z,86.02
2023-04-16T07:04:44.985Z,86.37
2023-04-16T07:07:11.411Z,86.18
2023-04-16T07:09:37.875Z,86.28
2023-04-16T07:12:04.411Z,86.03
2023-04-16T07:14:31.114Z,85.70
2023-04-16T07:16:57.738Z,85.90
2023-04-16T07:19:24.413Z,86.04
2023-04-16T07:21:50.800Z,85.86
2023-04-16T07:24:17.392Z,86.32
2023-04-16T07:26:43.777Z,86.07
2023-04-16T07:29:10.406Z,86.07
2023-04-16T07:31:37.056Z,86.03
2023-04-16T07:34:03.624Z,85.85
2023-04-16T07:36:30.042Z,85.60
2023-04-16T07:38:56.509Z,86.02
2023-04-16T07:41:22.992Z,85.65
2023-04-16T07:43:49.443Z,85.49
2023-04-16T07:46:16.250Z,85.34
2023-04-16T07:48:43.085Z,85.36
2023-04-16T07:51:09.475Z,85.28
2023-04-16T07:53:36.049Z,85.09
2023-04-16T07:56:02.484Z,84.75
2023-04-16T07:58:28.982Z,84.75
2023-04-16T08:00:55.548Z,84.93
2023-04-16T08:03:22.249Z,84.63
2023-04-16T08:05:48.832Z,84.78
2023-04-16T08:08:15.585Z,84.38
2023-04-16T08:10:42.151Z,84.50
2023-04-16T08:13:08.580Z,84.62
2023-04-16T08:15:35.121Z,84.30
2023-04-16T08:18:01.665Z,83.75
2023-04-16T08:20:28.260Z,83.84
2023-04-16T08:22:54.894Z,83.43
2023-04-16T08:25:23.552Z,83.76
2023-04-16T08:27:50.232Z,83.63
2023-04-16T08:30:16.719Z,83.52
2023-04-16T08:32:43.510Z,83.19
2023-04-16T08:35:10.010Z,83.27
2023-04-16T08:37:36.466Z,83.24
2023-04-16T08:40:03.486Z,83.45
2023-04-16T08:42:32.875Z,82.93
2023-04-16T08:45:17.891Z,82.58
2023-04-16T08:47:50.486Z,82.75
2023-04-16T08:50:19.408Z,82.72
2023-04-16T08:52:52.283Z,82.17
2023-04-16T08:55:23.468Z,82.17
2023-04-16T08:57:56.233Z,82.00
2023-04-16T09:00:23.822Z,82.29
2023-04-16T09:02:51.577Z,81.94
2023-04-16T09:05:19.057Z,81.67
2023-04-16T09:07:46.535Z,81.47
2023-04-16T09:10:14.760Z,81.41
2023-04-16T09:12:42.914Z,81.24
2023-04-16T09:15:13.313Z,81.21
2023-04-16T09:17:40.191Z,81.52
2023-04-16T09:20:11.213Z,81.21
2023-04-16T09:22:38.344Z,81.02
2023-04-16T09:25:05.080Z,81.18
2023-04-16T09:27:31.950Z,80.71
2023-04-16T09:29:58.634Z,80.91
2023-04-16T09:32:28.905Z,80.76
2023-04-16T09:35:00.094Z,80.97
2023-04-16T09:37:29.576Z,81.11
2023-04-16T09:40:00.804Z,81.24
2023-04-16T09:42:34.317Z,81.01
2023-04-16T09:45:03.354Z,81.08
2023-04-16T09:47:45.273Z,80.74
2023-04-16T09:50:18.167Z,80.95
2023-04-16T09:52:47.986Z,80.92
2023-04-16T09:55:14.490Z,80.91
2023-04-16T09:57:41.081Z,80.62
2023-04-16T10:00:09.500Z,80.96
2023-04-16T10:02:39.170Z,80.84
2023-04-16T10:05:06.327Z,81.72
2023-04-16T10:07:37.160Z,81.26
2023-04-16T10:10:04.387Z,81.25
2023-04-16T10:12:32.622Z,81.12
2023-04-16T10:14:59.082Z,80.86
2023-04-16T10:17:26.696Z,80.75
2023-04-16T10:19:54.607Z,80.20
2023-04-16T10:22:21.377Z,79.98
2023-04-16T10:24:48.288Z,80.12
2023-04-16T10:27:14.741Z,80.22
2023-04-16T10:29:41.356Z,80.54
2023-04-16T10:32:08.040Z,80.47
2023-04-16T10:34:36.408Z,80.22
2023-04-16T10:37:02.828Z,79.99
2023-04-16T10:39:34.382Z,80.24
2023-04-16T10:42:11.924Z,80.13
2023-04-16T10:44:41.508Z,79.73
2023-04-16T10:47:12.325Z,79.78
2023-04-16T10:49:38.979Z,79.36
2023-04-16T10:52:13.690Z,79.56
2023-04-16T10:54:41.067Z,79.47
2023-04-16T10:57:09.682Z,79.37
2023-04-16T10:59:37.421Z,79.26
2023-04-16T11:02:09.682Z,78.70
2023-04-16T11:04:38.186Z,78.81
2023-04-16T11:07:07.456Z,78.24
2023-04-16T11:09:57.553Z,77.84
2023-04-16T11:12:38.778Z,78.24
2023-04-16T11:15:06.314Z,78.23
2023-04-16T11:17:37.638Z,77.62
2023-04-16T11:20:17.779Z,77.25
2023-04-16T11:22:51.175Z,77.16
2023-04-16T11:25:24.136Z,76.76
2023-04-16T11:27:53.858Z,76.29
2023-04-16T11:30:33.255Z,75.81
2023-04-16T11:33:08.496Z,76.25
2023-04-16T11:35:35.090Z,76.47
2023-04-16T11:38:01.602Z,75.98
2023-04-16T11:40:34.003Z,76.08
2023-04-16T11:43:18.615Z,76.23
2023-04-16T11:46:02.692Z,76.07
2023-04-16T11:48:55.395Z,75.52
2023-04-16T11:51:23.125Z,76.08
2023-04-16T11:53:53.475Z,75.87
2023-04-16T11:56:30.022Z,75.57
2023-04-16T11:59:12.582Z,75.57
2023-04-16T12:01:40.834Z,75.76
2023-04-16T12:04:08.106Z,75.76
2023-04-16T12:06:34.793Z,75.69
2023-04-16T12:09:25.030Z,75.00
2023-04-16T12:11:51.542Z,75.26
2023-04-16T12:14:18.049Z,75.35
2023-04-16T12:16:44.546Z,75.54
2023-04-16T12:19:12.955Z,75.13
2023-04-16T12:21:40.344Z,74.98
2023-04-16T12:24:08.200Z,75.28
2023-04-16T12:26:42.577Z,74.76
2023-04-16T12:29:20.507Z,74.80
2023-04-16T12:31:48.060Z,74.98
2023-04-16T12:34:17.494Z,74.81
2023-04-16T12:36:45.824Z,75.02
2023-04-16T12:39:13.058Z,75.14
2023-04-16T12:41:41.738Z,74.84
2023-04-16T12:44:12.463Z,74.63
2023-04-16T12:46:40.269Z,74.12
2023-04-16T12:49:07.539Z,73.55
2023-04-16T12:51:34.892Z,73.25
2023-04-16T12:54:02.252Z,72.93
2023-04-16T12:56:28.841Z,73.19
2023-04-16T12:58:56.609Z,72.77
2023-04-16T13:01:23.549Z,72.76
2023-04-16T13:03:50.142Z,72.51
2023-04-16T13:06:17.014Z,72.29
2023-04-16T13:08:44.533Z,72.56
2023-04-16T13:11:11.152Z,72.31
2023-04-16T13:13:37.609Z,72.70
2023-04-16T13:16:06.515Z,72.63
2023-04-16T13:18:33.283Z,72.86
2023-04-16T13:20:59.843Z,73.15
2023-04-16T13:23:27.013Z,73.02
2023-04-16T13:25:53.550Z,72.96
2023-04-16T13:28:20.072Z,73.17
2023-04-16T13:30:49.429Z,73.00
2023-04-16T13:33:15.941Z,73.00
2023-04-16T13:35:42.504Z,73.62
2023-04-16T13:38:09.294Z,73.93
2023-04-16T13:40:35.728Z,74.04
2023-04-16T13:43:02.195Z,73.88
2023-04-16T13:45:28.688Z,73.97
2023-04-16T13:47:56.069Z,73.85
2023-04-16T13:50:23.044Z,74.35
2023-04-16T13:52:49.448Z,74.09
2023-04-16T13:55:19.036Z,73.92
2023-04-16T13:57:47.410Z,74.03
2023-04-16T14:00:15.350Z,73.90
2023-04-16T14:02:42.779Z,73.76
2023-04-16T14:05:09.628Z,73.50
2023-04-16T14:07:37.204Z,73.33
2023-04-16T14:10:03.960Z,72.93
2023-04-16T14:12:31.597Z,72.78
2023-04-16T14:14:58.256Z,72.98
2023-04-16T14:17:24.738Z,72.76
2023-04-16T14:19:51.279Z,72.83
2023-04-16T14:22:18.242Z,72.98
2023-04-16T14:24:44.621Z,73.56
2023-04-16T14:27:11.267Z,72.65
2023-04-16T14:29:37.890Z,72.75
2023-04-16T14:32:04.734Z,72.66
2023-04-16T14:34:31.384Z,72.77
2023-04-16T14:36:57.783Z,73.04
2023-04-16T14:39:24.844Z,72.81
2023-04-16T14:41:51.293Z,72.66
2023-04-16T14:44:17.707Z,72.70
2023-04-16T14:46:44.732Z,72.22
2023-04-16T14:49:12.213Z,72.33
2023-04-16T14:51:39.041Z,72.07
2023-04-16T14:54:05.684Z,72.34
2023-04-16T14:56:32.165Z,73.09
2023-04-16T14:58:58.649Z,73.02
2023-04-16T15:01:25.181Z,73.02
2023-04-16T15:03:51.798Z,73.05
2023-04-16T15:06:19.032Z,73.14
2023-04-16T15:08:45.787Z,72.48
2023-04-16T15:11:12.229Z,72.49
2023-04-16T15:13:39.023Z,72.39
2023-04-16T15:16:05.522Z,72.23
2023-04-16T15:18:32.695Z,72.45
2023-04-16T15:20:59.353Z,72.43
2023-04-16T15:23:25.882Z,72.26
2023-04-16T15:25:52.260Z,72.24
2023-04-16T15:28:18.745Z,72.19
2023-04-16T15:30:45.340Z,72.28
2023-04-16T15:33:11.943Z,72.22
2023-04-16T15:35:41.357Z,72.73
2023-04-16T15:38:08.182Z,72.94
2023-04-16T15:40:35.520Z,72.68
2023-04-16T15:43:01.961Z,72.43
2023-04-16T15:45:28.459Z,72.44
2023-04-16T15:47:55.975Z,72.77
2023-04-16T15:50:22.717Z,72.83
2023-04-16T15:52:49.270Z,72.74
2023-04-16T15:55:16.701Z,72.55
2023-04-16T15:57:43.137Z,73.15
2023-04-16T16:00:16.119Z,73.04
2023-04-16T16:02:47.042Z,73.13
2023-04-16T16:05:14.259Z,73.04
2023-04-16T16:07:41.367Z,72.86
2023-04-16T16:10:09.232Z,73.24
2023-04-16T16:12:35.972Z,73.28
2023-04-16T16:15:02.422Z,73.49
2023-04-16T16:17:29.472Z,73.14
2023-04-16T16:19:57.608Z,73.54
2023-04-16T16:22:24.434Z,73.80
2023-04-16T16:24:51.423Z,73.75
2023-04-16T16:27:21.386Z,73.80
2023-04-16T16:29:48.004Z,73.83
2023-04-16T16:32:14.661Z,73.72
2023-04-16T16:34:41.138Z,73.76
2023-04-16T16:37:07.677Z,73.90
2023-04-16T16:39:35.214Z,73.93
2023-04-16T16:42:02.479Z,73.80
2023-04-16T16:44:29.047Z,74.01
2023-04-16T16:46:55.473Z,74.13
2023-04-16T16:49:21.862Z,74.80
2023-04-16T16:51:48.579Z,75.16
2023-04-16T16:54:15.429Z,75.78
2023-04-16T16:56:41.962Z,75.69
2023-04-16T16:59:09.001Z,75.80
2023-04-16T17:01:35.837Z,75.78
2023-04-16T17:04:02.646Z,76.24
2023-04-16T17:06:29.290Z,76.29
2023-04-16T17:08:55.837Z,76.45
2023-04-16T17:11:22.248Z,76.44
2023-04-16T17:13:48.775Z,76.78
2023-04-16T17:16:17.563Z,76.88
2023-04-16T17:18:44.196Z,77.23
2023-04-16T17:21:10.769Z,77.39
2023-04-16T17:23:37.971Z,77.77
2023-04-16T17:26:05.934Z,77.41
2023-04-16T17:28:32.403Z,77.73
2023-04-16T17:30:59.501Z,77.75
2023-04-16T17:33:26.034Z,77.92
2023-04-16T17:35:52.521Z,78.17
2023-04-16T17:38:18.993Z,78.13
2023-04-16T17:40:45.657Z,78.11
2023-04-16T17:43:12.107Z,78.58
2023-04-16T17:45:38.593Z,78.03
2023-04-16T17:48:05.610Z,77.96
2023-04-16T17:50:32.103Z,78.63
2023-04-16T17:53:03.484Z,78.50
2023-04-16T17:55:30.988Z,78.56
2023-04-16T17:57:57.448Z,78.40
2023-04-16T18:00:24.018Z,78.56
2023-04-16T18:02:52.326Z,78.73
2023-04-16T18:05:21.680Z,78.84
2023-04-16T18:07:48.339Z,78.50
2023-04-16T18:10:14.872Z,78.71
2023-04-16T18:12:41.384Z,78.78
2023-04-16T18:15:08.428Z,78.98
2023-04-16T18:17:35.095Z,78.93
2023-04-16T18:20:01.736Z,78.99
2023-04-16T18:22:28.525Z,79.37
2023-04-16T18:24:55.324Z,79.45
2023-04-16T18:27:21.954Z,79.27
2023-04-16T18:29:49.363Z,79.58
2023-04-16T18:32:16.387Z,79.97
2023-04-16T18:34:43.018Z,79.51
2023-04-16T18:37:09.579Z,79.74
2023-04-16T18:39:36.933Z,79.68
2023-04-16T18:42:03.959Z,80.47
2023-04-16T18:44:30.510Z,80.44
2023-04-16T18:46:57.112Z,80.91
2023-04-16T18:49:23.797Z,80.59
2023-04-16T18:51:50.296Z,80.63
2023-04-16T18:54:17.020Z,80.79
2023-04-16T18:56:43.479Z,80.37
2023-04-16T18:59:10.127Z,80.80
2023-04-16T19:01:36.823Z,80.73
2023-04-16T19:04:03.486Z,80.97
2023-04-16T19:06:30.047Z,81.19
2023-04-16T19:08:56.558Z,81.29
2023-04-16T19:11:22.984Z,81.15
2023-04-16T19:13:49.430Z,80.61
2023-04-16T19:16:16.913Z,80.51
2023-04-16T19:18:43.477Z,80.37
2023-04-16T19:21:10.899Z,80.49
2023-04-16T19:23:37.482Z,80.75
2023-04-16T19:26:04.065Z,80.60
2023-04-16T19:28:30.702Z,80.43
2023-04-16T19:30:57.234Z,80.75
2023-04-16T19:33:23.732Z,80.60
2023-04-16T19:35:50.371Z,80.59
2023-04-16T19:38:16.950Z,80.38
2023-04-16T19:40:48.211Z,80.45
2023-04-16T19:43:14.963Z,80.48
2023-04-16T19:45:53.263Z,80.30
2023-04-16T19:48:20.718Z,80.37
2023-04-16T19:50:47.866Z,80.99
2023-04-16T19:53:14.450Z,80.90
2023-04-16T19:55:41.302Z,81.33
2023-04-16T19:58:08.433Z,81.59
2023-04-16T20:00:36.848Z,81.17
2023-04-16T20:03:03.982Z,81.43
2023-04-16T20:05:30.631Z,81.37
2023-04-16T20:07:57.068Z,81.58
2023-04-16T20:10:24.136Z,81.64
2023-04-16T20:12:50.896Z,81.14
2023-04-16T20:15:17.861Z,81.38
2023-04-16T20:17:44.343Z,81.48
2023-04-16T20:20:11.367Z,81.59
2023-04-16T20:22:38.324Z,81.56
2023-04-16T20:25:05.595Z,81.68
2023-04-16T20:27:32.667Z,81.85
2023-04-16T20:29:59.697Z,81.74
2023-04-16T20:32:27.633Z,82.01
2023-04-16T20:34:55.240Z,81.61
2023-04-16T20:37:21.714Z,81.68
2023-04-16T20:39:50.029Z,81.69
2023-04-16T20:42:16.805Z,81.58
2023-04-16T20:44:50.074Z,81.95
2023-04-16T20:47:17.232Z,82.06
2023-04-16T20:49:49.342Z,81.92
2023-04-16T20:52:16.558Z,82.15
2023-04-16T20:54:42.983Z,82.29
2023-04-16T20:57:09.493Z,82.44
2023-04-16T20:59:38.810Z,82.45
2023-04-16T21:02:05.813Z,82.47
2023-04-16T21:04:32.334Z,82.54
2023-04-16T21:06:58.817Z,82.21
2023-04-16T21:09:25.365Z,82.43
2023-04-16T21:11:51.796Z,82.47
2023-04-16T21:14:18.518Z,82.67
2023-04-16T21:16:44.979Z,82.34
2023-04-16T21:19:11.663Z,82.40
2023-04-16T21:21:38.850Z,82.70
2023-04-16T21:24:05.627Z,82.74
2023-04-16T21:26:32.065Z,82.93
2023-04-16T21:28:58.520Z,82.71
2023-04-16T21:31:25.008Z,82.35
2023-04-16T21:33:51.445Z,82.67
2023-04-16T21:36:17.888Z,82.76
2023-04-16T21:38:44.429Z,82.50
2023-04-16T21:41:11.291Z,82.53
2023-04-16T21:43:37.737Z,82.48
2023-04-16T21:46:04.188Z,82.87
2023-04-16T21:48:30.596Z,83.08
2023-04-16T21:50:58.162Z,82.98
2023-04-16T21:53:25.904Z,82.87
2023-04-16T21:55:52.406Z,82.92
2023-04-16T21:58:18.894Z,83.08
2023-04-16T22:00:45.534Z,83.27
2023-04-16T22:03:12.400Z,82.88
2023-04-16T22:05:39.091Z,83.74
2023-04-16T22:08:20.871Z,83.55
2023-04-16T22:10:50.369Z,83.92
2023-04-16T22:13:17.771Z,83.04
2023-04-16T22:15:44.176Z,82.95
2023-04-16T22:18:11.456Z,82.83
2023-04-16T22:20:39.112Z,83.16
2023-04-16T22:23:06.553Z,82.98
2023-04-16T22:25:33.404Z,83.63
2023-04-16T22:28:01.462Z,83.64
2023-04-16T22:30:28.013Z,83.92
2023-04-16T22:32:54.537Z,83.54
2023-04-16T22:35:21.031Z,83.84
2023-04-16T22:37:47.469Z,84.15
2023-04-16T22:40:14.923Z,84.03
2023-04-16T22:42:41.520Z,83.83
2023-04-16T22:45:08.801Z,83.69
2023-04-16T22:47:35.295Z,83.47
2023-04-16T22:50:01.776Z,83.23
2023-04-16T22:52:28.294Z,83.43
2023-04-16T22:54:54.725Z,83.64
2023-04-16T22:57:24.673Z,83.91
2023-04-16T22:59:51.615Z,84.71
2023-04-16T23:02:18.480Z,84.41
2023-04-16T23:04:46.212Z,84.18
2023-04-16T23:07:12.683Z,84.12
2023-04-16T23:09:39.126Z,83.74
2023-04-16T23:12:05.830Z,84.22
2023-04-16T23:14:32.318Z,84.36
2023-04-16T23:16:58.699Z,84.36
2023-04-16T23:19:25.227Z,84.39
2023-04-16T23:21:51.832Z,85.03
2023-04-16T23:24:18.236Z,85.11
2023-04-16T23:26:44.695Z,85.17
2023-04-16T23:29:11.396Z,85.78
2023-04-16T23:31:37.988Z,85.58
2023-04-16T23:34:04.456Z,85.50
2023-04-16T23:36:31.064Z,85.26
2023-04-16T23:38:57.531Z,85.39
2023-04-16T23:41:24.008Z,85.63
2023-04-16T23:43:50.671Z,85.60
2023-04-16T23:46:17.157Z,85.72
2023-04-16T23:48:43.580Z,85.79
2023-04-16T23:51:09.999Z,85.97
2023-04-16T23:53:36.759Z,85.99
2023-04-16T23:56:03.266Z,86.53
2023-04-16T23:58:29.657Z,86.35
